Time;durP1;ratioP1;P1;durP2;ratioP2;P2;SDS_P1;SDS_P2;PMS_P1;PMS_P2;Temp;Humidity;BMP_temperature;BMP_pressure;BME280_temperature;BME280_humidity;BME280_pressure;Samples;Min_cycle;Max_cycle;Signal;HPM_P1;HPM_P2
2024/01/14 00:00:01;;;;;;;3.97;2.08;;;;;;;-0.81;73.36;99093.44;5041529;28;20068;-70
2024/01/14 00:02:29;;;;;;;2.53;1.35;;;;;;;-0.81;74.08;99088.28;5041479;28;20065;-70
2024/01/14 00:04:57;;;;;;;3.60;2.00;;;;;;;-0.81;74.17;99087.44;5039230;28;20468;-70
2024/01/14 00:07:24;;;;;;;3.05;1.55;;;;;;;-0.82;74.26;99089.16;5043532;28;20126;-70
2024/01/14 00:09:51;;;;;;;4.53;1.70;;;;;;;-0.82;74.21;99094.28;5040691;28;20142;-70
2024/01/14 00:12:18;;;;;;;5.72;2.72;;;;;;;-0.82;73.99;99086.59;5044344;28;20115;-71
2024/01/14 00:14:44;;;;;;;5.05;2.20;;;;;;;-0.83;73.43;99087.47;5039740;28;20045;-72
2024/01/14 00:17:11;;;;;;;5.57;1.95;;;;;;;-0.83;74.30;99086.59;5040473;28;20049;-72
2024/01/14 00:19:40;;;;;;;8.50;2.38;;;;;;;-0.82;73.29;99084.03;5040738;28;20484;-71
2024/01/14 00:22:07;;;;;;;3.70;1.95;;;;;;;-0.85;73.61;99084.03;5043281;28;20071;-71
2024/01/14 00:24:34;;;;;;;4.45;2.03;;;;;;;-0.83;73.43;99082.31;5043203;28;20116;-70
2024/01/14 00:27:01;;;;;;;6.38;2.40;;;;;;;-0.84;73.79;99088.31;5040368;28;20092;-70
2024/01/14 00:29:27;;;;;;;5.82;2.72;;;;;;;-0.84;73.65;99085.75;5039111;28;20081;-70
2024/01/14 00:31:56;;;;;;;6.75;2.83;;;;;;;-0.85;73.97;99086.59;5044902;28;20120;-70
2024/01/14 00:34:23;;;;;;;5.60;2.90;;;;;;;-0.84;73.94;99088.31;5042039;28;20582;-70
2024/01/14 00:36:51;;;;;;;3.55;2.60;;;;;;;-0.84;73.53;99092.59;5042120;28;20072;-70
2024/01/14 00:39:19;;;;;;;5.00;2.95;;;;;;;-0.85;74.08;99076.34;5044067;28;20108;-70
2024/01/14 00:41:46;;;;;;;8.00;3.80;;;;;;;-0.85;74.03;99081.47;5041886;28;20640;-70
2024/01/14 00:44:13;;;;;;;11.55;3.65;;;;;;;-0.85;73.99;99076.34;5038836;28;20045;-70
2024/01/14 00:46:40;;;;;;;7.18;3.22;;;;;;;-0.85;73.72;99076.34;5040439;28;20045;-70
2024/01/14 00:49:07;;;;;;;9.93;3.58;;;;;;;-0.86;73.91;99074.63;5040545;28;20088;-70
2024/01/14 00:51:34;;;;;;;10.95;3.53;;;;;;;-0.86;74.09;99074.63;5039305;28;20045;-70
2024/01/14 00:54:02;;;;;;;6.95;3.55;;;;;;;-0.87;73.45;99067.78;5040860;28;20141;-70
2024/01/14 00:56:29;;;;;;;7.55;3.30;;;;;;;-0.87;73.66;99062.63;5039203;28;20081;-70
2024/01/14 00:58:56;;;;;;;6.53;3.30;;;;;;;-0.87;74.01;99059.22;5042477;28;20693;-71
2024/01/14 01:01:23;;;;;;;6.28;3.08;;;;;;;-0.87;73.87;99057.50;5040509;28;20663;-70
2024/01/14 01:03:50;;;;;;;8.20;3.55;;;;;;;-0.87;73.96;99052.38;5039914;28;20085;-70
2024/01/14 01:06:17;;;;;;;6.10;3.30;;;;;;;-0.88;74.16;99055.81;5042359;28;20163;-70
2024/01/14 01:08:44;;;;;;;6.70;3.40;;;;;;;-0.87;73.77;99062.63;5040361;28;20076;-70
2024/01/14 01:11:16;;;;;;;7.35;3.67;;;;;;;-0.89;74.00;99058.38;5042475;28;20128;-70
2024/01/14 01:13:43;;;;;;;11.07;5.68;;;;;;;-0.88;74.13;99063.50;5040595;28;20100;-70
2024/01/14 01:16:10;;;;;;;5.55;2.95;;;;;;;-0.89;73.87;99059.22;5043002;28;20080;-71
2024/01/14 01:18:37;;;;;;;6.57;3.05;;;;;;;-0.89;74.04;99059.22;5039480;28;20120;-70
2024/01/14 01:21:04;;;;;;;6.43;3.13;;;;;;;-0.89;74.02;99058.38;5038662;28;20135;-70
2024/01/14 01:23:31;;;;;;;6.60;3.05;;;;;;;-0.90;73.43;99054.09;5040483;28;20085;-70
2024/01/14 01:25:58;;;;;;;8.68;3.75;;;;;;;-0.93;73.69;99052.41;5044954;28;20148;-78
2024/01/14 01:28:26;;;;;;;7.43;3.80;;;;;;;-0.92;73.32;99059.22;5048704;28;20041;-78
2024/01/14 01:30:53;;;;;;;4.50;3.05;;;;;;;-0.93;73.92;99052.41;5049426;28;20049;-78
2024/01/14 01:33:20;;;;;;;5.57;3.17;;;;;;;-0.93;73.48;99051.56;5048410;28;20080;-78
2024/01/14 01:35:47;;;;;;;7.55;3.85;;;;;;;-0.95;73.26;99048.97;5041587;28;20085;-68
2024/01/14 01:38:14;;;;;;;7.38;3.50;;;;;;;-0.96;73.58;99049.84;5041478;28;20526;-68
2024/01/14 01:40:41;;;;;;;8.45;3.38;;;;;;;-0.97;72.92;99050.72;5037858;28;20084;-68
2024/01/14 01:43:08;;;;;;;6.75;2.85;;;;;;;-1.02;73.32;99043.03;5039013;28;20049;-69
2024/01/14 01:45:36;;;;;;;7.78;3.42;;;;;;;-0.97;73.36;99052.41;5037781;28;20123;-68
2024/01/14 01:48:04;;;;;;;7.35;3.05;;;;;;;-0.98;73.77;99043.00;5039152;28;20045;-69
2024/01/14 01:50:31;;;;;;;7.07;2.67;;;;;;;-1.00;73.45;99048.16;5038634;28;20041;-68
2024/01/14 01:52:59;;;;;;;6.75;2.55;;;;;;;-1.00;73.83;99050.72;5042001;28;20595;-68
2024/01/14 01:55:26;;;;;;;5.20;2.70;;;;;;;-1.01;74.06;99049.00;5039892;28;20080;-68
2024/01/14 01:57:54;;;;;;;4.03;2.47;;;;;;;-1.03;73.84;99051.59;5040660;28;20081;-68
2024/01/14 02:00:22;;;;;;;4.55;2.40;;;;;;;-1.04;73.91;99041.31;5036045;28;20041;-68
2024/01/14 02:02:51;;;;;;;3.90;2.22;;;;;;;-1.05;73.78;99043.03;5039590;28;20073;-68
2024/01/14 02:05:20;;;;;;;9.02;2.63;;;;;;;-1.08;73.69;99034.50;5043176;28;20163;-68
2024/01/14 02:07:46;;;;;;;4.25;2.63;;;;;;;-1.06;74.06;99041.34;5036571;28;20045;-68
2024/01/14 02:10:13;;;;;;;5.68;1.95;;;;;;;-1.07;73.58;99038.75;5040007;28;20069;-68
2024/01/14 02:12:40;;;;;;;3.88;2.45;;;;;;;-1.06;74.04;99040.47;5038898;28;20077;-68
2024/01/14 02:15:08;;;;;;;7.40;2.38;;;;;;;-1.06;74.00;99045.59;5037262;28;20128;-69
2024/01/14 02:17:35;;;;;;;4.47;2.20;;;;;;;-1.06;73.43;99048.16;5041901;28;20041;-69
2024/01/14 02:20:03;;;;;;;5.57;2.40;;;;;;;-1.07;73.60;99049.03;5041674;28;20107;-68
2024/01/14 02:22:34;;;;;;;4.95;2.08;;;;;;;-1.08;74.00;99045.63;5036715;28;20076;-68
2024/01/14 02:25:03;;;;;;;7.63;2.58;;;;;;;-1.08;73.62;99047.34;5039999;28;20057;-68
2024/01/14 02:27:30;;;;;;;4.63;1.80;;;;;;;-1.09;73.70;99045.59;5038932;28;20041;-68
2024/01/14 02:29:59;;;;;;;4.88;2.63;;;;;;;-1.09;73.29;99045.59;5037346;28;20151;-68
2024/01/14 02:32:26;;;;;;;5.65;2.60;;;;;;;-1.09;73.43;99045.59;5038974;28;20072;-68
2024/01/14 02:34:53;;;;;;;6.30;2.55;;;;;;;-1.10;74.32;99043.91;5038982;28;20129;-68
2024/01/14 02:37:20;;;;;;;4.03;2.33;;;;;;;-1.09;74.19;99045.59;5039290;28;20045;-68
2024/01/14 02:39:47;;;;;;;6.45;2.00;;;;;;;-1.10;73.94;99043.91;5040361;28;20049;-68
2024/01/14 02:42:16;;;;;;;4.38;2.28;;;;;;;-1.10;73.48;99049.03;5036044;28;20095;-68
2024/01/14 02:44:42;;;;;;;4.15;2.15;;;;;;;-1.12;74.17;99046.47;5039781;28;20045;-74
2024/01/14 02:47:09;;;;;;;6.32;2.22;;;;;;;-1.12;74.50;99041.34;5042070;28;20084;-75
2024/01/14 02:49:36;;;;;;;3.70;2.05;;;;;;;-1.12;74.04;99046.47;5038088;28;20508;-75
2024/01/14 02:52:03;;;;;;;4.43;1.50;;;;;;;-1.13;73.77;99046.50;5039194;28;20491;-75
2024/01/14 02:54:30;;;;;;;3.85;2.05;;;;;;;-1.13;73.52;99043.91;5036952;28;20049;-74
2024/01/14 02:56:57;;;;;;;5.05;2.30;;;;;;;-1.15;73.53;99038.78;5042980;28;20076;-75
2024/01/14 02:59:26;;;;;;;4.70;2.08;;;;;;;-1.16;73.50;99044.78;5037860;28;20136;-75
2024/01/14 03:01:53;;;;;;;2.20;1.42;;;;;;;-1.15;74.12;99035.38;5042445;28;20106;-75
2024/01/14 03:04:19;;;;;;;6.80;2.25;;;;;;;-1.17;73.40;99031.94;5038550;28;20049;-75
2024/01/14 03:06:46;;;;;;;4.55;2.17;;;;;;;-1.17;73.77;99037.06;5043360;28;20880;-75
2024/01/14 03:09:14;;;;;;;7.38;2.45;;;;;;;-1.18;74.30;99031.09;5042308;28;20076;-74
2024/01/14 03:11:41;;;;;;;2.65;1.80;;;;;;;-1.19;73.88;99037.09;5037787;28;20057;-75
2024/01/14 03:14:08;;;;;;;6.60;1.45;;;;;;;-1.23;73.80;99033.69;5038216;28;20072;-75
2024/01/14 03:16:36;;;;;;;4.80;1.77;;;;;;;-1.20;73.60;99040.50;5041448;28;20484;-75
2024/01/14 03:19:03;;;;;;;7.53;1.85;;;;;;;-1.21;73.87;99043.09;5038455;28;20084;-75
2024/01/14 03:21:30;;;;;;;3.47;1.88;;;;;;;-1.21;73.10;99036.25;5037366;28;20041;-75
2024/01/14 03:23:57;;;;;;;3.45;1.55;;;;;;;-1.21;73.94;99030.25;5041437;28;20117;-75
2024/01/14 03:26:24;;;;;;;2.92;1.33;;;;;;;-1.25;73.59;99027.69;5040971;28;20051;-75
2024/01/14 03:28:51;;;;;;;3.83;1.67;;;;;;;-1.23;73.41;99027.69;5039154;28;20060;-74
2024/01/14 03:31:17;;;;;;;2.20;1.20;;;;;;;-1.25;73.67;99030.25;5034059;28;20127;-75
2024/01/14 03:33:45;;;;;;;3.20;1.48;;;;;;;-1.25;73.73;99025.13;5041423;28;20148;-75
2024/01/14 03:36:14;;;;;;;3.55;1.27;;;;;;;-1.27;73.73;99014.00;5044576;28;20136;-75
2024/01/14 03:38:40;;;;;;;2.95;1.23;;;;;;;-1.30;74.02;99016.59;5036733;28;20596;-74
2024/01/14 03:41:08;;;;;;;2.00;1.33;;;;;;;-1.26;74.13;99020.88;5037533;28;20053;-75
2024/01/14 03:43:34;;;;;;;3.83;1.27;;;;;;;-1.27;74.15;99026.00;5038433;28;20049;-75
2024/01/14 03:46:02;;;;;;;1.88;1.20;;;;;;;-1.26;73.79;99020.88;5036544;28;20088;-71
2024/01/14 03:48:28;;;;;;;2.80;1.17;;;;;;;-1.26;74.33;99020.88;5040480;28;20052;-72
2024/01/14 03:50:57;;;;;;;1.73;0.82;;;;;;;-1.25;73.95;99020.00;5040119;28;20077;-72
2024/01/14 03:53:24;;;;;;;4.78;1.00;;;;;;;-1.27;73.83;99015.72;5037965;28;20072;-72
2024/01/14 03:55:51;;;;;;;2.58;1.40;;;;;;;-1.27;74.21;99015.72;5041428;28;20061;-70
2024/01/14 03:58:18;;;;;;;1.83;1.02;;;;;;;-1.28;74.39;99012.31;5033877;28;20128;-70
2024/01/14 04:00:45;;;;;;;3.97;1.15;;;;;;;-1.27;73.77;99008.88;5037975;28;20119;-70
2024/01/14 04:03:11;;;;;;;3.10;1.17;;;;;;;-1.27;73.96;99015.72;5045550;28;20076;-70
2024/01/14 04:05:39;;;;;;;3.10;1.33;;;;;;;-1.29;74.13;99002.88;5043099;28;20797;-70
2024/01/14 04:08:07;;;;;;;4.28;1.08;;;;;;;-1.28;74.12;99006.34;5042015;28;20041;-70
2024/01/14 04:10:34;;;;;;;2.38;1.42;;;;;;;-1.29;73.66;99017.44;5042508;28;20050;-70
2024/01/14 04:13:01;;;;;;;2.65;1.00;;;;;;;-1.31;73.90;99009.75;5039269;28;20072;-70
2024/01/14 04:15:29;;;;;;;3.17;0.80;;;;;;;-1.30;73.54;99020.88;5044048;28;20577;-70
2024/01/14 04:17:56;;;;;;;1.75;0.85;;;;;;;-1.32;74.00;99020.88;5039344;28;20554;-70
2024/01/14 04:20:23;;;;;;;1.85;1.08;;;;;;;-1.31;73.82;99019.19;5043601;28;20557;-70
2024/01/14 04:22:50;;;;;;;1.38;0.80;;;;;;;-1.32;74.26;99018.31;5043224;28;20068;-71
2024/01/14 04:25:18;;;;;;;1.35;0.60;;;;;;;-1.31;74.35;99019.19;5045385;28;20095;-71
2024/01/14 04:27:45;;;;;;;1.45;0.80;;;;;;;-1.33;74.03;99024.31;5038724;28;20079;-70
2024/01/14 04:30:12;;;;;;;2.83;0.73;;;;;;;-1.33;74.71;99023.44;5043286;28;20077;-70
2024/01/14 04:32:39;;;;;;;2.60;0.80;;;;;;;-1.33;74.40;99021.72;5044163;28;20138;-70
2024/01/14 04:35:07;;;;;;;4.07;0.75;;;;;;;-1.32;74.73;99018.31;5041480;28;20080;-71
2024/01/14 04:37:34;;;;;;;3.72;0.82;;;;;;;-1.32;74.39;99018.31;5042338;28;20103;-70
2024/01/14 04:40:00;;;;;;;1.70;0.90;;;;;;;-1.30;74.73;99013.19;5039803;28;20087;-70
2024/01/14 04:42:29;;;;;;;1.40;0.70;;;;;;;-1.29;74.22;99018.28;5043171;28;20095;-70
2024/01/14 04:44:56;;;;;;;1.42;0.98;;;;;;;-1.29;74.98;99017.44;5041253;28;20108;-70
2024/01/14 04:47:23;;;;;;;1.17;0.60;;;;;;;-1.28;75.10;99014.88;5039714;28;20087;-70
2024/01/14 04:49:50;;;;;;;1.45;0.60;;;;;;;-1.29;75.00;99005.47;5039053;28;20099;-70
2024/01/14 04:52:17;;;;;;;1.52;0.85;;;;;;;-1.29;74.58;99010.59;5042168;28;20076;-70
2024/01/14 04:54:43;;;;;;;1.05;0.60;;;;;;;-1.26;74.59;99007.16;5041566;28;20056;-71
2024/01/14 04:57:10;;;;;;;3.28;0.98;;;;;;;-1.26;74.74;99008.03;5042276;28;20457;-70
2024/01/14 04:59:39;;;;;;;1.40;0.70;;;;;;;-1.24;74.96;99014.00;5043144;28;20072;-70
2024/01/14 05:02:06;;;;;;;3.83;0.80;;;;;;;-1.25;75.03;99014.88;5043072;28;20468;-72
2024/01/14 05:04:34;;;;;;;1.42;0.77;;;;;;;-1.22;74.79;99014.00;5046902;28;20047;-78
2024/01/14 05:07:01;;;;;;;1.80;0.60;;;;;;;-1.23;74.73;99007.16;5049417;28;20080;-80
2024/01/14 05:09:28;;;;;;;1.20;1.00;;;;;;;-1.23;74.70;99008.03;5043578;28;20061;-79
2024/01/14 05:11:55;;;;;;;2.53;0.52;;;;;;;-1.22;74.85;98998.63;5040550;28;20451;-79
2024/01/14 05:14:21;;;;;;;1.65;0.40;;;;;;;-1.21;75.39;99012.28;5053417;28;20083;-78
2024/01/14 05:16:50;;;;;;;3.50;0.60;;;;;;;-1.20;74.63;99011.41;5047583;28;20083;-78
2024/01/14 05:19:17;;;;;;;1.73;0.50;;;;;;;-1.19;75.32;99008.03;5050547;28;20090;-78
2024/01/14 05:21:44;;;;;;;3.05;0.50;;;;;;;-1.19;75.12;99014.00;5057659;28;20095;-78
2024/01/14 05:24:11;;;;;;;1.10;0.60;;;;;;;-1.18;74.91;99014.84;5050796;28;20476;-79
2024/01/14 05:26:40;;;;;;;0.98;0.50;;;;;;;-1.18;75.05;99020.81;5046958;28;20046;-78
2024/01/14 05:29:07;;;;;;;0.75;0.50;;;;;;;-1.19;75.01;99020.84;5050641;28;20045;-77
2024/01/14 05:31:36;;;;;;;0.85;0.40;;;;;;;-1.18;75.57;99019.97;5046826;28;20047;-78
2024/01/14 05:34:04;;;;;;;1.20;0.43;;;;;;;-1.18;74.70;99010.56;5049358;28;20049;-78
2024/01/14 05:36:31;;;;;;;1.55;0.40;;;;;;;-1.18;75.16;99013.13;5051485;28;20080;-78
2024/01/14 05:38:58;;;;;;;0.68;0.30;;;;;;;-1.17;75.34;99016.53;5047219;28;20499;-78
2024/01/14 05:41:25;;;;;;;2.38;0.47;;;;;;;-1.16;75.41;99013.13;5038168;28;20144;-79
2024/01/14 05:43:52;;;;;;;1.27;0.20;;;;;;;-1.17;74.93;99017.41;5038695;28;20081;-78
2024/01/14 05:46:19;;;;;;;2.72;0.25;;;;;;;-1.17;74.81;99008.84;5043783;28;20740;-79
2024/01/14 05:48:46;;;;;;;0.98;0.20;;;;;;;-1.15;75.41;99015.69;5047273;28;20124;-78
2024/01/14 05:51:15;;;;;;;1.13;0.30;;;;;;;-1.13;75.27;99008.00;5042596;28;20127;-78
2024/01/14 05:53:42;;;;;;;1.30;0.38;;;;;;;-1.13;74.87;99005.44;5040094;28;20115;-78
2024/01/14 05:56:09;;;;;;;1.08;0.40;;;;;;;-1.13;75.47;99010.56;5039121;28;20080;-78
2024/01/14 05:58:35;;;;;;;0.98;0.30;;;;;;;-1.12;75.19;99015.66;5044454;28;20050;-78
2024/01/14 06:01:03;;;;;;;1.00;0.30;;;;;;;-1.11;74.98;99024.25;5038619;28;20080;-79
2024/01/14 06:03:30;;;;;;;0.88;0.30;;;;;;;-1.11;75.39;99009.69;5039893;28;20049;-78
2024/01/14 06:05:57;;;;;;;0.85;0.50;;;;;;;-1.11;75.68;99016.56;5041231;28;20134;-68
2024/01/14 06:08:25;;;;;;;1.15;0.20;;;;;;;-1.09;75.59;99014.81;5040514;28;20049;-69
2024/01/14 06:10:52;;;;;;;0.47;0.20;;;;;;;-1.08;75.52;99017.38;5037156;28;20475;-69
2024/01/14 06:13:19;;;;;;;1.60;0.30;;;;;;;-1.06;75.28;99019.94;5036512;28;20159;-69
2024/01/14 06:15:46;;;;;;;1.98;0.20;;;;;;;-1.06;75.46;99027.63;5042041;28;20204;-76
2024/01/14 06:18:13;;;;;;;0.30;0.10;;;;;;;-1.05;75.71;99024.22;5039964;28;20120;-76
2024/01/14 06:20:40;;;;;;;0.52;0.32;;;;;;;-1.05;75.32;99017.38;5037601;28;20505;-76
2024/01/14 06:23:07;;;;;;;0.70;0.30;;;;;;;-1.04;75.25;99024.19;5039818;28;20124;-77
2024/01/14 06:25:35;;;;;;;1.83;0.10;;;;;;;-1.03;75.07;99025.94;5039457;28;20083;-77
2024/01/14 06:28:02;;;;;;;2.92;0.20;;;;;;;-1.03;75.48;99019.91;5039066;28;20073;-76
2024/01/14 06:30:30;;;;;;;1.85;0.10;;;;;;;-1.02;75.46;99016.50;5037044;28;20084;-77
2024/01/14 06:32:56;;;;;;;1.85;0.10;;;;;;;-1.01;75.09;99019.06;5043223;28;20502;-76
2024/01/14 06:35:24;;;;;;;0.20;0.10;;;;;;;-1.00;74.64;99022.50;5039360;28;20073;-76
2024/01/14 06:37:51;;;;;;;0.65;0.13;;;;;;;-1.00;75.34;99017.34;5039852;28;20397;-76
2024/01/14 06:40:18;;;;;;;0.15;0.00;;;;;;;-0.99;75.62;99016.50;5042563;28;20570;-76
2024/01/14 06:42:48;;;;;;;0.95;0.10;;;;;;;-0.99;75.41;99021.63;5040994;28;20132;-76
2024/01/14 06:45:15;;;;;;;0.68;0.17;;;;;;;-0.98;75.03;99018.19;5043646;28;20506;-77
2024/01/14 06:47:41;;;;;;;0.65;0.10;;;;;;;-0.97;74.94;99019.91;5045851;28;20077;-78
2024/01/14 06:50:10;;;;;;;1.55;0.10;;;;;;;-0.97;75.53;99026.72;5044404;28;20159;-77
2024/01/14 06:52:37;;;;;;;0.25;0.10;;;;;;;-0.97;75.03;99021.59;5042926;28;20388;-77
2024/01/14 06:55:05;;;;;;;0.90;0.20;;;;;;;-0.97;75.04;99025.06;5040358;28;20072;-77
2024/01/14 06:57:32;;;;;;;0.52;0.10;;;;;;;-0.96;75.16;99026.75;5042709;28;20080;-77
2024/01/14 07:00:04;;;;;;;0.68;0.10;;;;;;;-0.95;75.34;99031.00;5042405;28;20076;-77
2024/01/14 07:02:31;;;;;;;0.15;0.13;;;;;;;-1.00;74.84;99022.50;5039893;28;20042;-76
2024/01/14 07:04:58;;;;;;;1.70;0.10;;;;;;;-0.94;74.82;99031.84;5040143;28;20077;-77
2024/01/14 07:07:24;;;;;;;0.32;0.10;;;;;;;-0.97;75.74;99030.19;5041380;28;20102;-77
2024/01/14 07:09:51;;;;;;;0.32;0.10;;;;;;;-0.94;74.75;99039.56;5037249;28;20087;-78
2024/01/14 07:12:18;;;;;;;2.28;0.10;;;;;;;-0.93;75.34;99042.13;5036865;28;20087;-77
2024/01/14 07:14:45;;;;;;;0.38;0.20;;;;;;;-0.93;75.28;99036.16;5035791;28;20083;-70
2024/01/14 07:17:14;;;;;;;1.10;0.30;;;;;;;-0.92;74.69;99042.97;5035412;28;20124;-70
2024/01/14 07:19:41;;;;;;;0.40;0.10;;;;;;;-0.96;75.03;99042.16;5035719;28;20086;-70
2024/01/14 07:22:07;;;;;;;2.50;0.17;;;;;;;-0.93;74.72;99047.25;5040582;28;20744;-70
2024/01/14 07:24:34;;;;;;;1.20;0.10;;;;;;;-0.94;75.35;99048.13;5040172;28;20073;-79
2024/01/14 07:27:02;;;;;;;0.30;0.10;;;;;;;-0.93;75.45;99056.69;5045442;28;20081;-80
2024/01/14 07:29:29;;;;;;;1.10;0.10;;;;;;;-0.92;75.17;99050.69;5037072;28;20045;-79
2024/01/14 07:31:56;;;;;;;0.98;0.20;;;;;;;-0.92;74.93;99048.97;5036715;28;20144;-79
2024/01/14 07:34:24;;;;;;;0.82;0.30;;;;;;;-0.93;75.34;99047.25;5036892;28;20360;-79
2024/01/14 07:36:51;;;;;;;0.25;0.17;;;;;;;-0.93;74.55;99047.25;5045030;28;20053;-79
2024/01/14 07:39:18;;;;;;;1.10;0.10;;;;;;;-0.94;74.80;99045.56;5044283;28;20080;-79
2024/01/14 07:41:45;;;;;;;0.60;0.20;;;;;;;-0.92;74.80;99048.13;5043375;28;20540;-78
2024/01/14 07:44:12;;;;;;;1.10;0.40;;;;;;;-0.97;75.20;99039.56;5039687;28;20535;-79
2024/01/14 07:46:39;;;;;;;1.85;0.10;;;;;;;-0.93;74.46;99052.41;5039713;28;20103;-79
2024/01/14 07:49:06;;;;;;;0.20;0.10;;;;;;;-0.92;75.37;99048.97;5048141;28;20049;-79
2024/01/14 07:51:35;;;;;;;0.32;0.10;;;;;;;-0.94;75.17;99050.72;5048730;28;20077;-78
2024/01/14 07:54:02;;;;;;;1.55;0.20;;;;;;;-0.93;74.76;99062.66;5052839;28;20084;-79
2024/01/14 07:56:37;;;;;;;1.13;0.20;;;;;;;-0.98;75.11;99043.84;5051975;28;20037;-79
2024/01/14 07:59:04;;;;;;;1.45;0.20;;;;;;;-0.98;74.69;99037.88;5053771;28;20048;-80
2024/01/14 08:01:31;;;;;;;0.15;0.10;;;;;;;-0.94;75.08;99044.69;5048480;28;20048;-81
2024/01/14 08:03:58;;;;;;;1.67;0.20;;;;;;;-0.93;74.95;99051.56;5044649;28;20491;-80
2024/01/14 08:06:26;;;;;;;1.42;0.30;;;;;;;-0.93;75.22;99052.41;5051809;28;20072;-80
2024/01/14 08:08:55;;;;;;;0.65;0.20;;;;;;;-0.94;74.84;99058.41;5046106;28;20045;-79
2024/01/14 08:11:22;;;;;;;0.30;0.10;;;;;;;-0.94;74.84;99060.97;5046321;28;20489;-80
2024/01/14 08:13:49;;;;;;;0.47;0.17;;;;;;;-0.92;75.16;99060.94;5045061;28;20041;-80
2024/01/14 08:16:16;;;;;;;0.73;0.20;;;;;;;-0.92;74.47;99064.38;5050018;28;20488;-80
2024/01/14 08:18:43;;;;;;;0.93;0.22;;;;;;;-0.92;75.15;99063.53;5039136;28;20475;-80
2024/01/14 08:21:10;;;;;;;1.48;0.17;;;;;;;-0.93;74.79;99067.81;5040953;28;20124;-81
2024/01/14 08:23:38;;;;;;;0.20;0.10;;;;;;;-0.92;74.63;99071.22;5048980;28;20073;-80
2024/01/14 08:26:07;;;;;;;0.60;0.20;;;;;;;-0.93;74.29;99072.94;5040044;28;20076;-74
2024/01/14 08:28:37;;;;;;;1.95;0.20;;;;;;;-0.93;74.21;99072.09;5038214;28;20048;-74
2024/01/14 08:31:04;;;;;;;1.17;0.20;;;;;;;-0.95;74.62;99072.09;5037444;28;20478;-73
2024/01/14 08:33:31;;;;;;;0.50;0.20;;;;;;;-0.92;74.93;99068.66;5043070;28;20080;-74
2024/01/14 08:35:58;;;;;;;0.52;0.10;;;;;;;-0.92;74.91;99063.53;5039650;28;20083;-73
2024/01/14 08:38:25;;;;;;;0.20;0.10;;;;;;;-0.93;74.72;99061.81;5040876;28;20107;-72
2024/01/14 08:40:53;;;;;;;0.98;0.20;;;;;;;-0.94;74.62;99060.09;5040478;28;20137;-71
2024/01/14 08:43:21;;;;;;;0.90;0.20;;;;;;;-0.93;74.33;99056.69;5042632;28;20049;-71
2024/01/14 08:45:48;;;;;;;2.05;0.20;;;;;;;-0.92;74.11;99054.09;5040778;28;20128;-71
2024/01/14 08:48:15;;;;;;;0.82;0.20;;;;;;;-0.92;75.22;99058.38;5043037;28;20222;-70
2024/01/14 08:50:42;;;;;;;3.80;0.90;;;;;;;-0.92;74.96;99059.22;5041953;28;20121;-71
2024/01/14 08:53:09;;;;;;;1.17;0.30;;;;;;;-0.92;74.93;99055.81;5036502;28;20096;-71
2024/01/14 08:55:36;;;;;;;0.30;0.20;;;;;;;-0.93;75.05;99052.41;5039658;28;20076;-71
2024/01/14 08:58:03;;;;;;;1.15;0.20;;;;;;;-0.93;74.82;99054.97;5039114;28;20172;-71
2024/01/14 09:00:32;;;;;;;0.85;0.20;;;;;;;-0.93;74.35;99054.97;5042940;28;20072;-71
2024/01/14 09:02:59;;;;;;;0.70;0.47;;;;;;;-0.93;74.88;99049.84;5045430;28;21676;-71
2024/01/14 09:05:26;;;;;;;1.23;0.13;;;;;;;-0.92;74.55;99048.13;5040948;28;20077;-71
2024/01/14 09:07:53;;;;;;;1.42;0.20;;;;;;;-0.93;74.73;99049.84;5041429;28;20080;-71
2024/01/14 09:10:20;;;;;;;1.15;0.20;;;;;;;-0.91;74.74;99045.56;5042042;28;20099;-71
2024/01/14 09:12:46;;;;;;;2.05;0.20;;;;;;;-0.91;74.77;99037.84;5040443;28;20049;-70
2024/01/14 09:15:14;;;;;;;1.17;0.20;;;;;;;-0.90;74.44;99046.41;5041533;28;20576;-71
2024/01/14 09:17:42;;;;;;;0.28;0.13;;;;;;;-0.90;74.54;99036.13;5041058;28;20092;-71
2024/01/14 09:20:09;;;;;;;1.33;0.30;;;;;;;-0.90;74.67;99047.25;4987953;28;20572;-70
2024/01/14 09:22:36;;;;;;;1.45;0.50;;;;;;;-0.90;75.06;99043.84;5018579;28;20081;-70
2024/01/14 09:25:03;;;;;;;3.35;0.80;;;;;;;-0.90;74.68;99044.69;5022025;28;20080;-70
2024/01/14 09:27:30;;;;;;;19.83;5.75;;;;;;;-0.89;74.60;99043.81;5018933;28;20050;-70
2024/01/14 09:29:57;;;;;;;7.05;1.33;;;;;;;-0.89;75.01;99048.09;5024090;28;20128;-70
2024/01/14 09:32:25;;;;;;;1.58;0.35;;;;;;;-0.88;74.67;99050.69;5020952;28;21077;-71
2024/01/14 09:34:53;;;;;;;1.38;0.30;;;;;;;-0.89;74.13;99046.38;5023680;28;20084;-74
2024/01/14 09:37:19;;;;;;;1.08;0.30;;;;;;;-0.88;75.05;99048.09;5022071;28;20081;-74
2024/01/14 09:39:46;;;;;;;0.95;0.50;;;;;;;-0.87;74.29;99054.09;5013448;28;20081;-73
2024/01/14 09:42:20;;;;;;;1.20;0.20;;;;;;;-0.87;75.04;99049.81;5020057;28;20166;-74
2024/01/14 09:44:48;;;;;;;0.30;0.20;;;;;;;-0.88;74.49;99037.84;5018613;28;20045;-74
2024/01/14 09:47:17;;;;;;;0.47;0.20;;;;;;;-0.88;74.71;99035.28;5018865;28;20069;-73
2024/01/14 09:49:45;;;;;;;2.05;1.08;;;;;;;-0.89;74.63;99038.69;5019296;28;20061;-74
2024/01/14 09:52:14;;;;;;;1.20;0.15;;;;;;;-0.86;74.16;99038.69;5018365;28;20119;-74
2024/01/14 09:54:41;;;;;;;0.35;0.20;;;;;;;-0.85;74.65;99048.09;5016997;28;20389;-74
2024/01/14 09:57:14;;;;;;;0.80;0.20;;;;;;;-0.84;74.07;99039.53;5017707;28;20527;-74
2024/01/14 09:59:44;;;;;;;1.60;0.20;;;;;;;-0.83;74.46;99042.94;5018441;28;20107;-73
2024/01/14 10:02:12;;;;;;;2.80;0.20;;;;;;;-0.83;74.90;99045.50;5020583;28;20041;-74
2024/01/14 10:04:41;;;;;;;1.45;0.28;;;;;;;-0.82;74.37;99042.09;5023021;28;20037;-74
2024/01/14 10:07:08;;;;;;;0.70;0.20;;;;;;;-0.82;74.40;99050.66;5020606;28;20053;-74
2024/01/14 10:09:39;;;;;;;0.32;0.10;;;;;;;-0.82;74.98;99035.25;5018746;28;20073;-74
2024/01/14 10:12:09;;;;;;;0.30;0.10;;;;;;;-0.83;74.67;99025.84;5019639;28;20132;-73
2024/01/14 10:14:36;;;;;;;1.38;0.10;;;;;;;-0.79;74.22;99021.53;5018840;28;20050;-74
2024/01/14 10:17:04;;;;;;;0.10;0.10;;;;;;;-0.79;74.42;99016.41;5020127;28;20148;-73
2024/01/14 10:19:32;;;;;;;0.40;0.00;;;;;;;-0.78;74.39;99025.81;5016964;28;20179;-73
2024/01/14 10:22:00;;;;;;;0.20;0.10;;;;;;;-0.79;74.46;99032.66;5018382;28;20045;-73
2024/01/14 10:24:27;;;;;;;1.38;0.45;;;;;;;-0.81;74.61;99015.53;5016053;28;20053;-73
2024/01/14 10:26:56;;;;;;;0.22;0.10;;;;;;;-0.76;74.33;99018.09;5017884;28;20140;-73
2024/01/14 10:29:24;;;;;;;0.25;0.03;;;;;;;-0.76;74.53;99016.38;5016492;28;20144;-73
2024/01/14 10:31:52;;;;;;;0.40;0.10;;;;;;;-0.74;74.26;99011.22;5017859;28;20131;-74
2024/01/14 10:34:20;;;;;;;0.17;0.05;;;;;;;-0.73;74.19;99010.38;5018238;28;20065;-73
2024/01/14 10:36:47;;;;;;;0.45;0.45;;;;;;;-0.73;73.82;99002.69;5019262;28;20087;-73
2024/01/14 10:39:14;;;;;;;0.10;0.10;;;;;;;-0.72;74.56;98997.50;5017628;28;20188;-74
2024/01/14 10:41:41;;;;;;;0.10;0.10;;;;;;;-0.71;74.32;98999.25;5015816;28;20141;-74
2024/01/14 10:44:09;;;;;;;4.90;0.32;;;;;;;-0.70;74.11;98998.38;5017989;28;20081;-72
2024/01/14 10:46:39;;;;;;;0.82;0.10;;;;;;;-0.69;74.00;98994.06;5019692;28;20049;-72
2024/01/14 10:49:08;;;;;;;0.30;0.10;;;;;;;-0.67;74.56;98988.06;5017392;28;20099;-72
2024/01/14 10:51:40;;;;;;;0.98;0.10;;;;;;;-0.67;73.93;98988.06;5014632;28;20081;-72
2024/01/14 10:54:16;;;;;;;0.35;0.08;;;;;;;-0.72;74.13;98978.69;5017606;28;20049;-74
2024/01/14 10:56:48;;;;;;;0.10;0.10;;;;;;;-0.65;73.72;98988.94;5017412;28;20606;-73
2024/01/14 10:59:17;;;;;;;0.00;0.00;;;;;;;-0.62;73.38;98990.63;5012278;28;20049;-74
2024/01/14 11:01:50;;;;;;;0.30;0.10;;;;;;;-0.62;74.07;98977.78;5019744;28;20080;-74
2024/01/14 11:04:19;;;;;;;0.50;0.10;;;;;;;-0.64;73.91;98971.81;5016241;28;20053;-74
2024/01/14 11:06:47;;;;;;;0.20;0.10;;;;;;;-0.60;73.84;98979.50;5015141;28;20049;-74
2024/01/14 11:09:14;;;;;;;1.95;0.30;;;;;;;-0.60;74.11;98984.63;5018940;28;20050;-76
2024/01/14 11:11:46;;;;;;;0.17;0.10;;;;;;;-0.59;74.19;98990.59;5016422;28;20088;-74
2024/01/14 11:14:21;;;;;;;1.55;0.00;;;;;;;-0.58;73.58;98982.03;5019651;28;20103;-74
2024/01/14 11:16:58;;;;;;;0.10;0.10;;;;;;;-0.61;73.67;98976.91;4988651;28;20056;-74
2024/01/14 11:19:30;;;;;;;0.32;0.10;;;;;;;-0.56;73.76;98993.16;5022189;28;20740;-73
2024/01/14 11:22:12;;;;;;;0.90;0.10;;;;;;;-0.58;74.08;98982.88;5019868;28;20072;-73
2024/01/14 11:24:39;;;;;;;0.57;0.10;;;;;;;-0.54;73.49;98983.72;5023855;28;20037;-75
2024/01/14 11:27:08;;;;;;;0.30;0.10;;;;;;;-0.57;73.52;98981.19;5020442;28;20077;-73
2024/01/14 11:29:39;;;;;;;0.20;0.10;;;;;;;-0.51;73.82;98986.28;5019608;28;20124;-74
2024/01/14 11:32:09;;;;;;;0.00;0.00;;;;;;;-0.50;73.68;98984.56;5022352;28;20038;-73
2024/01/14 11:34:59;;;;;;;1.27;0.10;;;;;;;-0.47;74.13;98982.81;5017864;28;20145;-75